createdAt,value
2022-09-30T00:02:40.135Z,91.56
2022-09-30T00:05:47.239Z,91.53
2022-09-30T00:08:54.120Z,91.53
2022-09-30T00:12:00.381Z,91.50
2022-09-30T00:15:07.133Z,91.50
2022-09-30T00:18:14.904Z,91.50
2022-09-30T00:21:22.864Z,91.53
2022-09-30T00:24:28.068Z,91.55
2022-09-30T00:27:35.776Z,91.54
2022-09-30T00:30:43.091Z,91.53
2022-09-30T00:33:49.166Z,91.53
2022-09-30T00:37:05.250Z,91.55
2022-09-30T00:40:11.151Z,91.54
2022-09-30T00:43:16.701Z,91.52
2022-09-30T00:46:32.240Z,91.50
2022-09-30T00:49:37.884Z,91.48
2022-09-30T00:52:45.416Z,91.50
2022-09-30T00:56:18.829Z,91.49
2022-09-30T00:59:31.904Z,91.48
2022-09-30T01:02:37.434Z,91.44
2022-09-30T01:05:42.815Z,91.41
2022-09-30T01:08:51.485Z,91.41
2022-09-30T01:11:58.358Z,91.37
2022-09-30T01:15:04.723Z,91.35
2022-09-30T01:18:29.746Z,91.37
2022-09-30T01:22:30.779Z,91.35
2022-09-30T01:26:14.467Z,91.35
2022-09-30T01:29:35.961Z,91.38
2022-09-30T01:33:07.084Z,91.36
2022-09-30T01:36:38.795Z,91.36
2022-09-30T01:40:08.851Z,91.39
2022-09-30T01:43:52.728Z,91.43
2022-09-30T01:47:05.770Z,91.44
2022-09-30T01:50:25.314Z,91.45
2022-09-30T01:53:54.231Z,91.51
2022-09-30T01:57:08.117Z,91.55
2022-09-30T02:00:22.090Z,91.59
2022-09-30T02:03:39.296Z,91.58
2022-09-30T02:06:57.003Z,91.59
2022-09-30T02:10:10.354Z,91.57
2022-09-30T02:13:34.693Z,91.58
2022-09-30T02:16:51.071Z,91.56
2022-09-30T02:20:07.888Z,91.55
2022-09-30T02:23:40.296Z,91.57
2022-09-30T02:26:49.084Z,91.63
2022-09-30T02:29:58.156Z,91.66
2022-09-30T02:33:14.860Z,91.65
2022-09-30T02:36:34.503Z,91.67
2022-09-30T02:40:21.944Z,91.70
2022-09-30T02:43:27.961Z,91.74
2022-09-30T02:46:50.497Z,91.73
2022-09-30T02:50:06.595Z,91.72
2022-09-30T02:53:38.480Z,91.71
2022-09-30T02:57:06.841Z,91.66
2022-09-30T03:00:14.288Z,91.60
2022-09-30T03:03:43.815Z,91.57
2022-09-30T03:06:52.972Z,91.58
2022-09-30T03:09:58.783Z,91.50
2022-09-30T03:13:13.785Z,91.40
2022-09-30T03:16:45.077Z,91.41
2022-09-30T03:20:28.298Z,91.46
2022-09-30T03:24:00.701Z,91.52
2022-09-30T03:27:34.186Z,91.57
2022-09-30T03:30:41.057Z,91.65
2022-09-30T03:33:57.201Z,91.64
2022-09-30T03:37:26.031Z,91.64
2022-09-30T03:40:50.903Z,91.61
2022-09-30T03:44:17.833Z,91.61
2022-09-30T03:47:25.170Z,91.60
2022-09-30T03:50:35.419Z,91.57
2022-09-30T03:53:42.237Z,91.56
2022-09-30T03:56:51.848Z,91.55
2022-09-30T03:59:57.946Z,91.54
2022-09-30T04:03:03.119Z,91.51
2022-09-30T04:06:09.544Z,91.57
2022-09-30T04:09:11.389Z,91.59
2022-09-30T04:12:18.363Z,91.60
2022-09-30T04:15:25.012Z,91.65
2022-09-30T04:18:31.685Z,91.61
2022-09-30T04:21:39.403Z,91.60
2022-09-30T04:24:46.304Z,91.63
2022-09-30T04:27:52.998Z,91.60
2022-09-30T04:30:58.977Z,91.65
2022-09-30T04:34:06.703Z,91.63
2022-09-30T04:37:13.294Z,91.59
2022-09-30T04:40:18.069Z,91.54
2022-09-30T04:43:24.723Z,91.49
2022-09-30T04:46:32.224Z,91.47
2022-09-30T04:49:39.628Z,91.45
2022-09-30T04:52:47.127Z,91.36
2022-09-30T04:55:52.610Z,91.33
2022-09-30T04:58:58.412Z,91.30
2022-09-30T05:02:06.071Z,91.27
2022-09-30T05:05:13.635Z,91.35
2022-09-30T05:08:22.363Z,91.42
2022-09-30T05:11:36.459Z,91.50
2022-09-30T05:14:43.576Z,91.53
2022-09-30T05:17:51.811Z,91.61
2022-09-30T05:20:59.424Z,91.63
2022-09-30T05:24:05.673Z,91.70
2022-09-30T05:27:11.909Z,91.73
2022-09-30T05:30:17.061Z,91.76
2022-09-30T05:33:22.712Z,91.72
2022-09-30T05:36:29.070Z,91.79
2022-09-30T05:39:35.694Z,91.70
2022-09-30T05:42:43.418Z,91.68
2022-09-30T05:45:48.500Z,91.74
2022-09-30T05:48:55.649Z,91.77
2022-09-30T05:52:02.709Z,91.71
2022-09-30T05:55:08.441Z,91.67
2022-09-30T05:58:15.518Z,91.64
2022-09-30T06:01:28.560Z,91.53
2022-09-30T06:04:35.291Z,91.47
2022-09-30T06:07:41.873Z,91.54
2022-09-30T06:10:49.531Z,91.50
2022-09-30T06:13:57.435Z,91.50
2022-09-30T06:17:03.553Z,91.50
2022-09-30T06:20:12.900Z,91.52
2022-09-30T06:23:19.644Z,91.52
2022-09-30T06:26:26.708Z,91.63
2022-09-30T06:29:33.918Z,91.76
2022-09-30T06:32:49.995Z,91.84
2022-09-30T06:35:59.442Z,91.92
2022-09-30T06:39:10.260Z,91.81
2022-09-30T06:42:15.050Z,91.75
2022-09-30T06:49:22.581Z,91.99
2022-09-30T06:52:09.476Z,92.05
2022-09-30T06:55:25.097Z,91.97
2022-09-30T06:58:40.231Z,91.88
2022-09-30T07:02:27.095Z,91.72
2022-09-30T07:05:51.383Z,91.60
2022-09-30T07:08:59.130Z,91.56
2022-09-30T07:12:10.700Z,91.57
2022-09-30T07:15:17.973Z,91.55
2022-09-30T07:18:38.257Z,91.55
2022-09-30T07:21:48.515Z,91.55
2022-09-30T07:24:55.241Z,91.57
2022-09-30T07:28:03.202Z,91.57
2022-09-30T07:31:31.539Z,91.57
2022-09-30T07:34:36.263Z,91.60
2022-09-30T07:37:43.051Z,91.63
2022-09-30T07:40:51.920Z,91.71
2022-09-30T07:44:00.674Z,91.78
2022-09-30T07:47:06.729Z,91.89
2022-09-30T07:50:16.824Z,91.90
2022-09-30T07:53:24.212Z,91.96
2022-09-30T07:56:45.637Z,92.03
2022-09-30T07:59:43.822Z,92.12
2022-09-30T08:02:49.656Z,92.18
2022-09-30T08:05:56.232Z,92.18
2022-09-30T08:09:09.385Z,92.17
2022-09-30T08:12:17.913Z,92.05
2022-09-30T08:15:24.140Z,92.19
2022-09-30T08:18:31.114Z,92.33
2022-09-30T08:21:37.090Z,92.36
2022-09-30T08:24:42.339Z,92.42
2022-09-30T08:27:48.598Z,92.48
2022-09-30T08:30:54.982Z,92.54
2022-09-30T08:34:01.927Z,92.60
2022-09-30T08:37:09.949Z,92.69
2022-09-30T08:40:17.510Z,92.75
2022-09-30T08:43:43.915Z,92.84
2022-09-30T08:47:03.365Z,92.98
2022-09-30T08:50:33.950Z,93.12
2022-09-30T08:53:49.356Z,93.07
2022-09-30T08:56:56.191Z,93.04
2022-09-30T09:00:11.566Z,93.06
2022-09-30T09:03:17.508Z,93.06
2022-09-30T09:06:40.479Z,93.12
2022-09-30T09:10:17.819Z,93.19
2022-09-30T09:13:55.636Z,93.22
2022-09-30T09:17:24.050Z,93.26
2022-09-30T09:20:32.321Z,93.39
2022-09-30T09:23:37.866Z,93.46
2022-09-30T09:26:51.117Z,93.54
2022-09-30T09:30:13.125Z,93.59
2022-09-30T09:33:34.557Z,93.64
2022-09-30T09:37:21.297Z,93.72
2022-09-30T09:40:51.798Z,93.85
2022-09-30T09:44:07.807Z,93.95
2022-09-30T09:47:29.383Z,94.03
2022-09-30T09:50:56.414Z,94.07
2022-09-30T09:54:38.695Z,94.13
2022-09-30T09:57:43.990Z,94.20
2022-09-30T10:00:53.949Z,94.23
2022-09-30T10:03:59.647Z,94.22
2022-09-30T10:07:13.459Z,94.22
2022-09-30T10:10:31.098Z,94.25
2022-09-30T10:13:45.614Z,94.20
2022-09-30T10:16:52.061Z,93.98
2022-09-30T10:20:10.494Z,93.78
2022-09-30T10:23:37.270Z,93.59
2022-09-30T10:26:47.645Z,93.44
2022-09-30T10:29:54.718Z,93.35
2022-09-30T10:32:59.392Z,93.27
2022-09-30T10:36:24.007Z,93.27
2022-09-30T10:39:52.455Z,93.26
2022-09-30T10:43:02.126Z,93.28
2022-09-30T10:46:26.016Z,93.30
2022-09-30T10:49:51.014Z,93.28
2022-09-30T10:53:15.906Z,93.34
2022-09-30T10:56:24.564Z,93.47
2022-09-30T10:59:44.654Z,93.49
2022-09-30T11:03:11.445Z,93.49
2022-09-30T11:06:19.247Z,93.43
2022-09-30T11:09:52.234Z,93.42
2022-09-30T11:13:23.084Z,93.40
2022-09-30T11:16:53.958Z,93.38
2022-09-30T11:20:16.290Z,93.34
2022-09-30T11:23:41.843Z,93.21
2022-09-30T11:27:03.371Z,93.05
2022-09-30T11:30:35.986Z,92.88
2022-09-30T11:33:48.800Z,92.79
2022-09-30T11:37:20.597Z,92.77
2022-09-30T11:40:46.674Z,92.65
2022-09-30T11:44:00.066Z,92.43
2022-09-30T11:47:39.800Z,92.21
2022-09-30T11:51:02.482Z,92.12
2022-09-30T11:54:47.364Z,92.05
2022-09-30T11:58:42.142Z,91.99
2022-09-30T12:01:45.544Z,91.95
2022-09-30T12:04:52.872Z,92.14
2022-09-30T12:08:17.289Z,92.22
2022-09-30T12:11:32.075Z,92.27
2022-09-30T12:14:45.416Z,92.39
2022-09-30T12:17:55.160Z,92.45
2022-09-30T12:21:14.783Z,92.55
2022-09-30T12:24:55.066Z,92.75
2022-09-30T12:28:15.210Z,92.82
2022-09-30T12:31:48.601Z,92.82
2022-09-30T12:34:57.032Z,92.63
2022-09-30T12:38:32.618Z,92.68
2022-09-30T12:42:16.728Z,92.62
2022-09-30T12:45:42.714Z,92.52
2022-09-30T12:49:02.122Z,92.30
2022-09-30T12:52:12.192Z,92.26
2022-09-30T12:55:31.908Z,92.29
2022-09-30T12:58:41.543Z,92.25
2022-09-30T13:02:08.040Z,92.30
2022-09-30T13:05:06.082Z,92.40
2022-09-30T13:08:25.905Z,92.40
2022-09-30T13:11:53.478Z,92.44
2022-09-30T13:14:59.567Z,92.46
2022-09-30T13:18:09.582Z,92.69
2022-09-30T13:21:25.327Z,92.88
2022-09-30T13:24:32.068Z,92.93
2022-09-30T13:28:06.573Z,92.84
2022-09-30T13:31:38.381Z,92.77
2022-09-30T13:34:50.502Z,92.65
2022-09-30T13:37:55.310Z,92.54
2022-09-30T13:41:35.217Z,92.50
2022-09-30T13:45:22.993Z,92.54
2022-09-30T13:48:44.648Z,92.56
2022-09-30T13:51:51.294Z,92.62
2022-09-30T13:54:56.957Z,92.63
2022-09-30T13:58:23.653Z,92.59
2022-09-30T14:01:49.812Z,92.55
2022-09-30T14:05:09.539Z,92.58
2022-09-30T14:08:37.128Z,92.51
2022-09-30T14:11:56.426Z,92.62
2022-09-30T14:15:38.559Z,92.58
2022-09-30T14:19:20.139Z,92.53
2022-09-30T14:22:27.635Z,92.49
2022-09-30T14:25:35.173Z,92.51
2022-09-30T14:28:54.705Z,92.48
2022-09-30T14:32:02.346Z,92.54
2022-09-30T14:35:09.259Z,92.57
2022-09-30T14:38:37.863Z,92.66
2022-09-30T14:41:45.894Z,92.75
2022-09-30T14:44:58.643Z,92.78
2022-09-30T14:48:10.948Z,92.85
2022-09-30T14:51:25.072Z,92.92
2022-09-30T14:54:42.874Z,92.97
2022-09-30T14:57:52.280Z,93.01
2022-09-30T15:01:02.317Z,92.99
2022-09-30T15:04:20.153Z,92.95
2022-09-30T15:07:29.704Z,92.90
2022-09-30T15:10:38.920Z,92.87
2022-09-30T15:13:48.389Z,92.83
2022-09-30T15:17:11.594Z,92.71
2022-09-30T15:20:21.126Z,92.68
2022-09-30T15:23:35.230Z,92.71
2022-09-30T15:26:41.733Z,92.74
2022-09-30T15:29:53.500Z,92.82
2022-09-30T15:32:59.587Z,92.90
2022-09-30T15:36:06.423Z,92.95
2022-09-30T15:39:14.137Z,93.01
2022-09-30T15:42:19.414Z,93.03
2022-09-30T15:45:56.091Z,93.06
2022-09-30T15:49:01.544Z,93.07
2022-09-30T15:52:08.542Z,93.14
2022-09-30T15:55:14.751Z,93.11
2022-09-30T15:58:54.625Z,93.17
2022-09-30T16:02:05.400Z,93.18
2022-09-30T16:05:13.566Z,93.24
2022-09-30T16:08:24.121Z,93.28
2022-09-30T16:11:44.028Z,93.38
2022-09-30T16:15:08.091Z,93.53
2022-09-30T16:18:13.167Z,93.63
2022-09-30T16:21:20.812Z,93.75
2022-09-30T16:24:53.427Z,93.76
2022-09-30T16:28:02.251Z,93.80
2022-09-30T16:31:11.327Z,93.77
2022-09-30T16:34:18.799Z,93.71
2022-09-30T16:37:29.577Z,93.70
2022-09-30T16:40:40.415Z,93.75
2022-09-30T16:43:46.546Z,93.75
2022-09-30T16:46:51.415Z,93.82
2022-09-30T16:50:00.718Z,94.00
2022-09-30T16:53:07.978Z,94.26
2022-09-30T16:56:16.715Z,94.52
2022-09-30T16:59:26.349Z,94.73
2022-09-30T17:02:34.605Z,94.87
2022-09-30T17:05:41.348Z,95.03
2022-09-30T17:08:49.027Z,95.12
2022-09-30T17:11:59.496Z,95.18
2022-09-30T17:15:05.806Z,95.24
2022-09-30T17:18:16.706Z,95.29
2022-09-30T17:21:24.096Z,95.35
2022-09-30T17:24:30.022Z,95.38
2022-09-30T17:27:36.383Z,95.41
2022-09-30T17:30:42.343Z,95.44
2022-09-30T17:33:51.309Z,95.50
2022-09-30T17:36:59.849Z,95.61
2022-09-30T17:40:06.258Z,95.70
2022-09-30T17:43:18.085Z,95.78
2022-09-30T17:46:25.565Z,95.85
2022-09-30T17:49:34.791Z,95.89
2022-09-30T17:52:42.018Z,95.91
2022-09-30T17:55:49.185Z,95.90
2022-09-30T17:58:55.389Z,95.91
2022-09-30T18:02:06.661Z,95.95
2022-09-30T18:05:13.328Z,95.96
2022-09-30T18:08:22.577Z,95.94
2022-09-30T18:11:30.291Z,95.93
2022-09-30T18:14:38.511Z,95.95
2022-09-30T18:17:45.794Z,96.02
2022-09-30T18:21:01.114Z,96.02
2022-09-30T18:24:08.922Z,96.04
2022-09-30T18:27:22.665Z,96.02
2022-09-30T18:30:30.438Z,95.84
2022-09-30T18:33:37.985Z,95.75
2022-09-30T18:36:46.445Z,95.63
2022-09-30T18:39:55.351Z,95.60
2022-09-30T18:43:04.837Z,95.62
2022-09-30T18:46:12.457Z,95.65
2022-09-30T18:49:21.279Z,95.64
2022-09-30T18:52:27.808Z,95.70
2022-09-30T18:55:36.671Z,95.77
2022-09-30T18:58:43.530Z,95.76
2022-09-30T19:01:53.373Z,95.71
2022-09-30T19:05:00.928Z,95.65
2022-09-30T19:08:09.927Z,95.65
2022-09-30T19:11:23.862Z,95.76
2022-09-30T19:14:32.440Z,95.84
2022-09-30T19:17:38.622Z,95.92
2022-09-30T19:20:46.340Z,95.93
2022-09-30T19:23:53.961Z,95.95
2022-09-30T19:27:00.774Z,95.99
2022-09-30T19:30:08.347Z,96.08
2022-09-30T19:33:16.541Z,96.19
2022-09-30T19:36:24.635Z,96.21
2022-09-30T19:39:42.818Z,96.11
2022-09-30T19:42:41.250Z,95.93
2022-09-30T19:45:51.098Z,95.78
2022-09-30T19:48:57.784Z,95.69
2022-09-30T19:52:17.431Z,95.67
2022-09-30T19:55:17.256Z,95.69
2022-09-30T19:58:26.529Z,95.77
2022-09-30T20:01:37.628Z,95.61
2022-09-30T20:04:46.973Z,95.68
2022-09-30T20:07:53.027Z,95.76
2022-09-30T20:11:01.288Z,95.75
2022-09-30T20:14:27.095Z,95.82
2022-09-30T20:17:35.579Z,95.84
2022-09-30T20:20:47.315Z,95.87
2022-09-30T20:23:56.591Z,95.93
2022-09-30T20:27:05.688Z,95.85
2022-09-30T20:30:12.397Z,95.70
2022-09-30T20:33:20.737Z,95.59
2022-09-30T20:36:27.585Z,95.56
2022-09-30T20:39:36.508Z,95.68
2022-09-30T20:42:46.178Z,95.75
2022-09-30T20:45:54.328Z,95.85
2022-09-30T20:49:01.818Z,96.08
2022-09-30T20:52:13.065Z,96.24
2022-09-30T20:55:19.183Z,96.42
2022-09-30T20:58:25.273Z,96.46
2022-09-30T21:01:32.855Z,96.53
2022-09-30T21:04:42.368Z,96.57
2022-09-30T21:07:49.286Z,96.66
2022-09-30T21:10:55.204Z,96.71
2022-09-30T21:14:05.465Z,96.76
2022-09-30T21:17:12.990Z,96.78
2022-09-30T21:20:21.070Z,96.73
2022-09-30T21:23:26.688Z,96.68
2022-09-30T21:26:33.487Z,96.72
2022-09-30T21:29:39.599Z,96.76
2022-09-30T21:32:45.903Z,96.77
2022-09-30T21:35:53.220Z,96.79
2022-09-30T21:39:04.541Z,96.77
2022-09-30T21:42:09.972Z,96.74
2022-09-30T21:45:17.143Z,96.59
2022-09-30T21:48:23.997Z,96.44
2022-09-30T21:51:30.088Z,96.37
2022-09-30T21:54:36.961Z,96.17
2022-09-30T21:57:43.323Z,95.95
2022-09-30T22:00:48.423Z,95.87
2022-09-30T22:03:55.209Z,95.82
2022-09-30T22:07:01.876Z,95.83
2022-09-30T22:10:08.567Z,95.92
2022-09-30T22:13:14.699Z,95.87
2022-09-30T22:16:26.605Z,95.53
2022-09-30T22:19:31.426Z,95.34
2022-09-30T22:22:37.620Z,95.34
2022-09-30T22:25:44.695Z,95.40
2022-09-30T22:28:52.028Z,95.53
2022-09-30T22:31:57.736Z,95.65
2022-09-30T22:35:21.422Z,95.76
2022-09-30T22:38:29.712Z,95.67
2022-09-30T22:41:35.767Z,95.57
2022-09-30T22:44:48.141Z,95.57
2022-09-30T22:47:54.968Z,95.58
2022-09-30T22:51:01.404Z,95.69
2022-09-30T22:54:07.315Z,95.56
2022-09-30T22:57:16.878Z,95.58
2022-09-30T23:00:23.457Z,95.58
2022-09-30T23:03:32.038Z,95.38
2022-09-30T23:06:39.333Z,95.21
2022-09-30T23:09:46.880Z,95.13
2022-09-30T23:12:55.919Z,95.31
2022-09-30T23:16:02.717Z,95.26
2022-09-30T23:19:09.178Z,95.37
2022-09-30T23:22:16.504Z,95.50
2022-09-30T23:25:24.555Z,95.55
2022-09-30T23:28:31.463Z,95.67
2022-09-30T23:31:37.955Z,95.75
2022-09-30T23:34:44.225Z,95.86
2022-09-30T23:37:50.429Z,95.95
2022-09-30T23:41:04.993Z,95.93
2022-09-30T23:44:12.866Z,95.88
2022-09-30T23:47:28.346Z,95.88
2022-09-30T23:50:34.640Z,96.04
2022-09-30T23:53:41.436Z,96.11
2022-09-30T23:56:47.964Z,96.18
2022-09-30T23:59:54.646Z,96.19
